Last 6 Hours

AM-Scott Top 8120'

15 Minute Data | America/Los_Angeles
as of 9/5/26 3:59 AM PDT
Date & Time Temp (°F) RH (%) Dew Pt (°F) Wet Bulb (°F) Wind Dir (°) Wind Spd (mph) Wind Gust (mph) WindChill (°F) Daily Min Temp (°F) Daily Max Temp (°F)
9/5/26 - 0345 40.9 91 38.6 39.7 NNW | 345 10.9 19.0 34.4 40.1 41.8
9/5/26 - 0330 41.3 90 38.5 39.8 NNW | 345 11.3 20.9 35.0 40.1 41.8
9/5/26 - 0315 41.3 89 38.4 39.8 NNW | 347 11.4 18.0 34.8 40.1 41.8
9/5/26 - 0300 41.6 89 38.5 40.0 NNW | 343 13.2 22.0 34.0 40.1 41.7
9/5/26 - 0245 41.2 90 38.4 39.7 NNW | 346 13.3 21.3 34.7 40.1 41.6
9/5/26 - 0230 41.2 90 38.4 39.7 N | 349 15.0 23.9 33.2 40.1 41.6
9/5/26 - 0215 41.5 89 38.4 39.9 NNW | 344 15.4 23.0 33.7 40.1 41.6
9/5/26 - 0200 41.3 90 38.5 39.8 NNW | 344 12.1 17.8 34.5 40.1 41.6
9/5/26 - 0145 41.3 90 38.6 39.9 NNW | 344 10.6 18.0 33.8 40.1 41.6
9/5/26 - 0130 41.3 90 38.6 39.8 N | 349 10.6 19.1 36.0 40.1 41.6
9/5/26 - 0115 41.4 89 38.4 39.8 NNW | 346 11.6 19.4 35.1 40.1 41.6
9/5/26 - 0100 41.5 89 38.5 39.9 NNW | 343 11.5 17.3 34.4 40.1 41.5
9/5/26 - 0045 41.3 89 38.3 39.8 NNW | 346 11.0 17.1 34.7 40.1 41.3
9/5/26 - 0030 41.1 90 38.4 39.7 NNW | 346 11.4 17.5 33.8 40.1 41.2
9/5/26 - 0015 40.6 93 38.7 39.6 NNW | 341 11.6 20.0 32.2 40.1 40.6
9/5/26 - 0000 40.3 93 38.4 39.3 N | 351 12.2 21.3 32.8 38.9 44.1
9/4/26 - 2345 39.8 93 38.1 38.9 NNW | 345 12.4 20.8 32.3 38.9 44.1
9/4/26 - 2330 39.5 94 37.9 38.7 NNW | 348 13.0 19.4 31.2 38.9 44.1
9/4/26 - 2315 39.4 94 37.7 38.5 NNW | 347 12.5 19.6 31.5 38.9 44.1
9/4/26 - 2300 39.5 94 37.9 38.7 N | 352 13.9 21.6 31.7 38.9 44.1
9/4/26 - 2245 40.3 92 38.0 39.1 NNW | 346 14.9 23.2 33.2 38.9 44.1
9/4/26 - 2230 39.9 92 37.8 38.8 N | 355 15.7 23.8 32.2 38.9 44.1
9/4/26 - 2215 39.2 93 37.5 38.3 NNW | 347 12.9 20.7 30.7 39.2 44.1
9/4/26 - 2200 39.5 93 37.7 38.6 NNW | 347 12.1 18.2 32.7 39.5 44.1
Max 41.6 94 38.7 40.0 - 15.7 23.9 36.0 40.1 44.1
Avg 40.7 91 38.3 39.4 - 12.5 20.1 33.4 - -
Min 39.2 89 37.5 38.3 - 10.6 17.1 30.7 38.9 40.6